sensor_id;sensor_type;location;lat;lon;timestamp;P1;durP1;ratioP1;P2;durP2;ratioP2
7667;SDS011;3876;42.204;24.686;2023-10-31T00:01:48;2.47;;;2.37;;
7667;SDS011;3876;42.204;24.686;2023-10-31T00:04:15;1.90;;;1.80;;
7667;SDS011;3876;42.204;24.686;2023-10-31T00:06:43;2.10;;;2.00;;
7667;SDS011;3876;42.204;24.686;2023-10-31T00:09:10;2.23;;;2.13;;
7667;SDS011;3876;42.204;24.686;2023-10-31T00:11:36;2.40;;;2.30;;
7667;SDS011;3876;42.204;24.686;2023-10-31T00:14:03;2.53;;;2.43;;
7667;SDS011;3876;42.204;24.686;2023-10-31T00:16:30;2.00;;;1.93;;
7667;SDS011;3876;42.204;24.686;2023-10-31T00:18:57;6.63;;;2.20;;
7667;SDS011;3876;42.204;24.686;2023-10-31T00:21:24;2.80;;;2.13;;
7667;SDS011;3876;42.204;24.686;2023-10-31T00:23:52;2.10;;;2.00;;
7667;SDS011;3876;42.204;24.686;2023-10-31T00:26:19;4.10;;;1.73;;
7667;SDS011;3876;42.204;24.686;2023-10-31T00:28:46;1.50;;;1.50;;
7667;SDS011;3876;42.204;24.686;2023-10-31T00:31:12;2.90;;;1.80;;
7667;SDS011;3876;42.204;24.686;2023-10-31T00:33:39;1.83;;;1.83;;
7667;SDS011;3876;42.204;24.686;2023-10-31T00:36:06;2.30;;;2.20;;
7667;SDS011;3876;42.204;24.686;2023-10-31T00:38:33;6.17;;;2.03;;
7667;SDS011;3876;42.204;24.686;2023-10-31T00:41:02;2.20;;;2.10;;
7667;SDS011;3876;42.204;24.686;2023-10-31T00:43:28;2.10;;;2.00;;
7667;SDS011;3876;42.204;24.686;2023-10-31T00:45:55;1.47;;;1.47;;
7667;SDS011;3876;42.204;24.686;2023-10-31T00:48:22;1.87;;;1.77;;
7667;SDS011;3876;42.204;24.686;2023-10-31T00:50:49;2.13;;;2.03;;
7667;SDS011;3876;42.204;24.686;2023-10-31T00:53:15;7.33;;;2.13;;
7667;SDS011;3876;42.204;24.686;2023-10-31T00:55:42;4.13;;;1.60;;
7667;SDS011;3876;42.204;24.686;2023-10-31T00:58:11;1.57;;;1.47;;
7667;SDS011;3876;42.204;24.686;2023-10-31T01:00:38;1.87;;;1.77;;
7667;SDS011;3876;42.204;24.686;2023-10-31T01:03:05;1.53;;;1.43;;
7667;SDS011;3876;42.204;24.686;2023-10-31T01:05:32;1.43;;;1.43;;
7667;SDS011;3876;42.204;24.686;2023-10-31T01:07:58;1.60;;;1.60;;
7667;SDS011;3876;42.204;24.686;2023-10-31T01:10:25;1.77;;;1.67;;
7667;SDS011;3876;42.204;24.686;2023-10-31T01:12:52;1.13;;;1.13;;
7667;SDS011;3876;42.204;24.686;2023-10-31T01:15:20;1.30;;;1.30;;
7667;SDS011;3876;42.204;24.686;2023-10-31T01:17:47;1.27;;;1.27;;
7667;SDS011;3876;42.204;24.686;2023-10-31T01:20:13;1.40;;;1.40;;
7667;SDS011;3876;42.204;24.686;2023-10-31T01:22:40;1.27;;;1.27;;
7667;SDS011;3876;42.204;24.686;2023-10-31T01:25:07;9.53;;;1.80;;
7667;SDS011;3876;42.204;24.686;2023-10-31T01:27:35;1.03;;;1.03;;
7667;SDS011;3876;42.204;24.686;2023-10-31T01:30:02;1.83;;;1.73;;
7667;SDS011;3876;42.204;24.686;2023-10-31T01:32:31;2.70;;;2.60;;
7667;SDS011;3876;42.204;24.686;2023-10-31T01:34:58;4.03;;;2.47;;
7667;SDS011;3876;42.204;24.686;2023-10-31T01:37:24;3.13;;;1.67;;
7667;SDS011;3876;42.204;24.686;2023-10-31T01:39:51;3.20;;;2.90;;
7667;SDS011;3876;42.204;24.686;2023-10-31T01:42:18;2.17;;;1.83;;
7667;SDS011;3876;42.204;24.686;2023-10-31T01:44:45;2.00;;;1.90;;
7667;SDS011;3876;42.204;24.686;2023-10-31T01:47:11;5.80;;;1.60;;
7667;SDS011;3876;42.204;24.686;2023-10-31T01:49:40;1.70;;;1.70;;
7667;SDS011;3876;42.204;24.686;2023-10-31T01:52:07;1.50;;;1.40;;
7667;SDS011;3876;42.204;24.686;2023-10-31T01:54:34;1.60;;;1.50;;
7667;SDS011;3876;42.204;24.686;2023-10-31T01:57:01;1.93;;;1.83;;
7667;SDS011;3876;42.204;24.686;2023-10-31T01:59:30;1.87;;;1.87;;
7667;SDS011;3876;42.204;24.686;2023-10-31T02:01:58;1.30;;;1.30;;
7667;SDS011;3876;42.204;24.686;2023-10-31T02:04:27;2.07;;;1.80;;
7667;SDS011;3876;42.204;24.686;2023-10-31T02:06:55;2.37;;;1.37;;
7667;SDS011;3876;42.204;24.686;2023-10-31T02:09:21;1.20;;;1.20;;
7667;SDS011;3876;42.204;24.686;2023-10-31T02:11:51;1.40;;;1.40;;
7667;SDS011;3876;42.204;24.686;2023-10-31T02:14:18;1.93;;;1.80;;
7667;SDS011;3876;42.204;24.686;2023-10-31T02:16:45;1.60;;;1.50;;
7667;SDS011;3876;42.204;24.686;2023-10-31T02:19:11;1.70;;;1.60;;
7667;SDS011;3876;42.204;24.686;2023-10-31T02:21:43;2.53;;;1.60;;
7667;SDS011;3876;42.204;24.686;2023-10-31T02:24:10;1.57;;;1.50;;
7667;SDS011;3876;42.204;24.686;2023-10-31T02:26:37;2.23;;;2.00;;
7667;SDS011;3876;42.204;24.686;2023-10-31T02:29:04;1.80;;;1.70;;
7667;SDS011;3876;42.204;24.686;2023-10-31T02:31:32;1.77;;;1.67;;
7667;SDS011;3876;42.204;24.686;2023-10-31T02:33:58;1.43;;;1.33;;
7667;SDS011;3876;42.204;24.686;2023-10-31T02:36:25;2.17;;;2.07;;
7667;SDS011;3876;42.204;24.686;2023-10-31T02:38:53;1.07;;;1.07;;
7667;SDS011;3876;42.204;24.686;2023-10-31T02:41:20;1.37;;;1.37;;
7667;SDS011;3876;42.204;24.686;2023-10-31T02:43:48;1.73;;;1.73;;
7667;SDS011;3876;42.204;24.686;2023-10-31T02:46:15;6.47;;;2.27;;
7667;SDS011;3876;42.204;24.686;2023-10-31T02:48:42;3.30;;;2.93;;
7667;SDS011;3876;42.204;24.686;2023-10-31T02:51:09;2.80;;;2.67;;
7667;SDS011;3876;42.204;24.686;2023-10-31T02:53:36;1.67;;;1.57;;
7667;SDS011;3876;42.204;24.686;2023-10-31T02:56:04;1.70;;;1.60;;
7667;SDS011;3876;42.204;24.686;2023-10-31T02:58:31;1.43;;;1.43;;
7667;SDS011;3876;42.204;24.686;2023-10-31T03:00:58;4.93;;;2.10;;
7667;SDS011;3876;42.204;24.686;2023-10-31T03:03:24;1.23;;;1.23;;
7667;SDS011;3876;42.204;24.686;2023-10-31T03:05:51;2.47;;;2.20;;
7667;SDS011;3876;42.204;24.686;2023-10-31T03:08:18;1.53;;;1.53;;
7667;SDS011;3876;42.204;24.686;2023-10-31T03:10:47;1.53;;;1.43;;
7667;SDS011;3876;42.204;24.686;2023-10-31T03:13:17;2.53;;;2.10;;
7667;SDS011;3876;42.204;24.686;2023-10-31T03:15:45;1.97;;;1.87;;
7667;SDS011;3876;42.204;24.686;2023-10-31T03:18:12;1.10;;;1.10;;
7667;SDS011;3876;42.204;24.686;2023-10-31T03:20:40;1.80;;;1.80;;
7667;SDS011;3876;42.204;24.686;2023-10-31T03:23:06;1.73;;;1.63;;
7667;SDS011;3876;42.204;24.686;2023-10-31T03:25:33;3.43;;;1.90;;
7667;SDS011;3876;42.204;24.686;2023-10-31T03:28:00;1.73;;;1.63;;
7667;SDS011;3876;42.204;24.686;2023-10-31T03:30:29;1.40;;;1.40;;
7667;SDS011;3876;42.204;24.686;2023-10-31T03:32:55;1.80;;;1.70;;
7667;SDS011;3876;42.204;24.686;2023-10-31T03:35:22;1.30;;;1.30;;
7667;SDS011;3876;42.204;24.686;2023-10-31T03:37:49;1.20;;;1.20;;
7667;SDS011;3876;42.204;24.686;2023-10-31T03:40:16;2.47;;;2.37;;
7667;SDS011;3876;42.204;24.686;2023-10-31T03:42:42;2.07;;;1.43;;
7667;SDS011;3876;42.204;24.686;2023-10-31T03:45:09;1.40;;;1.40;;
7667;SDS011;3876;42.204;24.686;2023-10-31T03:47:37;1.80;;;1.70;;
7667;SDS011;3876;42.204;24.686;2023-10-31T03:50:05;2.00;;;1.40;;
7667;SDS011;3876;42.204;24.686;2023-10-31T03:52:32;2.37;;;2.17;;
7667;SDS011;3876;42.204;24.686;2023-10-31T03:54:58;2.17;;;2.07;;
7667;SDS011;3876;42.204;24.686;2023-10-31T03:57:25;1.57;;;1.57;;
7667;SDS011;3876;42.204;24.686;2023-10-31T03:59:52;1.30;;;1.30;;
7667;SDS011;3876;42.204;24.686;2023-10-31T04:02:19;1.67;;;1.67;;
7667;SDS011;3876;42.204;24.686;2023-10-31T04:04:47;1.80;;;1.70;;
7667;SDS011;3876;42.204;24.686;2023-10-31T04:07:14;1.03;;;1.03;;
7667;SDS011;3876;42.204;24.686;2023-10-31T04:09:40;1.20;;;1.20;;
7667;SDS011;3876;42.204;24.686;2023-10-31T04:12:08;2.23;;;2.03;;
7667;SDS011;3876;42.204;24.686;2023-10-31T04:14:35;2.40;;;2.20;;
7667;SDS011;3876;42.204;24.686;2023-10-31T04:17:01;3.07;;;2.97;;
7667;SDS011;3876;42.204;24.686;2023-10-31T04:19:28;2.83;;;2.73;;
7667;SDS011;3876;42.204;24.686;2023-10-31T04:21:56;4.90;;;2.70;;
7667;SDS011;3876;42.204;24.686;2023-10-31T04:24:23;3.73;;;3.53;;
7667;SDS011;3876;42.204;24.686;2023-10-31T04:26:50;3.30;;;3.10;;
7667;SDS011;3876;42.204;24.686;2023-10-31T04:29:16;1.87;;;1.80;;
7667;SDS011;3876;42.204;24.686;2023-10-31T04:31:43;2.30;;;2.20;;
7667;SDS011;3876;42.204;24.686;2023-10-31T04:34:10;1.90;;;1.90;;
7667;SDS011;3876;42.204;24.686;2023-10-31T04:36:37;5.53;;;1.97;;
7667;SDS011;3876;42.204;24.686;2023-10-31T04:39:05;2.60;;;2.40;;
7667;SDS011;3876;42.204;24.686;2023-10-31T04:41:32;2.20;;;2.00;;
7667;SDS011;3876;42.204;24.686;2023-10-31T04:43:58;3.60;;;3.33;;
7667;SDS011;3876;42.204;24.686;2023-10-31T04:46:25;2.57;;;2.37;;
7667;SDS011;3876;42.204;24.686;2023-10-31T04:48:53;2.77;;;2.33;;
7667;SDS011;3876;42.204;24.686;2023-10-31T04:51:19;3.67;;;2.77;;
7667;SDS011;3876;42.204;24.686;2023-10-31T04:53:46;4.77;;;3.27;;
7667;SDS011;3876;42.204;24.686;2023-10-31T04:56:14;2.30;;;2.20;;
7667;SDS011;3876;42.204;24.686;2023-10-31T04:58:42;2.80;;;2.70;;
7667;SDS011;3876;42.204;24.686;2023-10-31T05:01:09;2.77;;;2.63;;
7667;SDS011;3876;42.204;24.686;2023-10-31T05:03:36;2.63;;;2.43;;
7667;SDS011;3876;42.204;24.686;2023-10-31T05:06:03;2.63;;;2.53;;
7667;SDS011;3876;42.204;24.686;2023-10-31T05:08:30;2.10;;;2.00;;
7667;SDS011;3876;42.204;24.686;2023-10-31T05:10:57;3.47;;;3.17;;
7667;SDS011;3876;42.204;24.686;2023-10-31T05:13:26;2.17;;;2.07;;
7667;SDS011;3876;42.204;24.686;2023-10-31T05:15:52;1.83;;;1.73;;
7667;SDS011;3876;42.204;24.686;2023-10-31T05:18:19;5.03;;;1.80;;
7667;SDS011;3876;42.204;24.686;2023-10-31T05:20:46;1.97;;;1.87;;
7667;SDS011;3876;42.204;24.686;2023-10-31T05:23:13;1.50;;;1.40;;
7667;SDS011;3876;42.204;24.686;2023-10-31T05:25:40;1.90;;;1.80;;
7667;SDS011;3876;42.204;24.686;2023-10-31T05:28:07;2.07;;;1.97;;
7667;SDS011;3876;42.204;24.686;2023-10-31T05:30:35;1.77;;;1.67;;
7667;SDS011;3876;42.204;24.686;2023-10-31T05:33:02;2.57;;;1.47;;
7667;SDS011;3876;42.204;24.686;2023-10-31T05:35:29;1.47;;;1.47;;
7667;SDS011;3876;42.204;24.686;2023-10-31T05:37:55;2.03;;;1.93;;
7667;SDS011;3876;42.204;24.686;2023-10-31T05:40:22;1.40;;;1.30;;
7667;SDS011;3876;42.204;24.686;2023-10-31T05:42:50;3.13;;;1.23;;
7667;SDS011;3876;42.204;24.686;2023-10-31T05:45:17;1.80;;;1.70;;
7667;SDS011;3876;42.204;24.686;2023-10-31T05:47:45;1.67;;;1.57;;
7667;SDS011;3876;42.204;24.686;2023-10-31T05:50:12;1.77;;;1.77;;
7667;SDS011;3876;42.204;24.686;2023-10-31T05:52:38;1.90;;;1.90;;
7667;SDS011;3876;42.204;24.686;2023-10-31T05:55:05;1.83;;;1.57;;
7667;SDS011;3876;42.204;24.686;2023-10-31T05:57:33;1.80;;;1.70;;
7667;SDS011;3876;42.204;24.686;2023-10-31T06:00:00;6.60;;;3.10;;
7667;SDS011;3876;42.204;24.686;2023-10-31T06:02:26;1.63;;;1.53;;
7667;SDS011;3876;42.204;24.686;2023-10-31T06:04:56;1.93;;;1.83;;
7667;SDS011;3876;42.204;24.686;2023-10-31T06:07:23;6.60;;;1.47;;
7667;SDS011;3876;42.204;24.686;2023-10-31T06:09:49;3.20;;;2.37;;
7667;SDS011;3876;42.204;24.686;2023-10-31T06:12:16;2.10;;;2.00;;
7667;SDS011;3876;42.204;24.686;2023-10-31T06:14:43;1.93;;;1.93;;
7667;SDS011;3876;42.204;24.686;2023-10-31T06:17:09;2.30;;;2.20;;
7667;SDS011;3876;42.204;24.686;2023-10-31T06:19:36;1.60;;;1.50;;
7667;SDS011;3876;42.204;24.686;2023-10-31T06:22:05;2.27;;;2.07;;
7667;SDS011;3876;42.204;24.686;2023-10-31T06:24:31;2.07;;;1.97;;
7667;SDS011;3876;42.204;24.686;2023-10-31T06:26:58;2.43;;;2.30;;
7667;SDS011;3876;42.204;24.686;2023-10-31T06:29:25;2.07;;;2.07;;
7667;SDS011;3876;42.204;24.686;2023-10-31T06:31:51;2.00;;;1.93;;
7667;SDS011;3876;42.204;24.686;2023-10-31T06:34:18;2.10;;;2.00;;
7667;SDS011;3876;42.204;24.686;2023-10-31T06:36:45;1.93;;;1.93;;
7667;SDS011;3876;42.204;24.686;2023-10-31T06:39:13;2.20;;;1.93;;
7667;SDS011;3876;42.204;24.686;2023-10-31T06:41:40;1.60;;;1.50;;
7667;SDS011;3876;42.204;24.686;2023-10-31T06:44:07;1.60;;;1.50;;
7667;SDS011;3876;42.204;24.686;2023-10-31T06:46:34;1.70;;;1.60;;
7667;SDS011;3876;42.204;24.686;2023-10-31T06:49:00;1.80;;;1.50;;
7667;SDS011;3876;42.204;24.686;2023-10-31T06:51:27;5.83;;;1.50;;
7667;SDS011;3876;42.204;24.686;2023-10-31T06:53:54;5.43;;;2.53;;
7667;SDS011;3876;42.204;24.686;2023-10-31T06:56:22;3.17;;;1.97;;
7667;SDS011;3876;42.204;24.686;2023-10-31T06:58:49;2.07;;;1.97;;
7667;SDS011;3876;42.204;24.686;2023-10-31T07:01:15;1.93;;;1.80;;
7667;SDS011;3876;42.204;24.686;2023-10-31T07:03:44;1.83;;;1.77;;
7667;SDS011;3876;42.204;24.686;2023-10-31T07:06:11;1.53;;;1.43;;
7667;SDS011;3876;42.204;24.686;2023-10-31T07:08:37;2.30;;;1.87;;
7667;SDS011;3876;42.204;24.686;2023-10-31T07:11:04;1.90;;;1.80;;
7667;SDS011;3876;42.204;24.686;2023-10-31T07:13:32;2.10;;;2.00;;
7667;SDS011;3876;42.204;24.686;2023-10-31T07:16:00;2.20;;;2.00;;
7667;SDS011;3876;42.204;24.686;2023-10-31T07:18:27;2.27;;;2.20;;
7667;SDS011;3876;42.204;24.686;2023-10-31T07:20:53;5.50;;;2.17;;
7667;SDS011;3876;42.204;24.686;2023-10-31T07:23:20;1.63;;;1.60;;
7667;SDS011;3876;42.204;24.686;2023-10-31T07:25:47;4.67;;;2.20;;
7667;SDS011;3876;42.204;24.686;2023-10-31T07:28:14;2.00;;;2.00;;
7667;SDS011;3876;42.204;24.686;2023-10-31T07:30:43;2.87;;;2.63;;
7667;SDS011;3876;42.204;24.686;2023-10-31T07:33:12;2.27;;;2.17;;
7667;SDS011;3876;42.204;24.686;2023-10-31T07:35:39;3.53;;;1.90;;
7667;SDS011;3876;42.204;24.686;2023-10-31T07:38:05;2.23;;;2.13;;
7667;SDS011;3876;42.204;24.686;2023-10-31T07:40:33;2.77;;;1.80;;
7667;SDS011;3876;42.204;24.686;2023-10-31T07:42:59;2.10;;;1.90;;
7667;SDS011;3876;42.204;24.686;2023-10-31T07:45:26;2.73;;;2.57;;
7667;SDS011;3876;42.204;24.686;2023-10-31T07:47:54;2.50;;;2.40;;
7667;SDS011;3876;42.204;24.686;2023-10-31T07:50:21;3.07;;;2.87;;
7667;SDS011;3876;42.204;24.686;2023-10-31T07:52:48;2.73;;;2.60;;
7667;SDS011;3876;42.204;24.686;2023-10-31T07:55:14;2.87;;;2.77;;
7667;SDS011;3876;42.204;24.686;2023-10-31T07:57:41;3.33;;;3.03;;
7667;SDS011;3876;42.204;24.686;2023-10-31T08:00:09;4.80;;;2.10;;
7667;SDS011;3876;42.204;24.686;2023-10-31T08:02:37;2.60;;;2.47;;
7667;SDS011;3876;42.204;24.686;2023-10-31T08:05:05;2.40;;;2.30;;
7667;SDS011;3876;42.204;24.686;2023-10-31T08:07:34;2.17;;;2.03;;
7667;SDS011;3876;42.204;24.686;2023-10-31T08:10:01;9.17;;;2.80;;
7667;SDS011;3876;42.204;24.686;2023-10-31T08:12:29;2.33;;;2.23;;
7667;SDS011;3876;42.204;24.686;2023-10-31T08:14:56;2.97;;;2.67;;
7667;SDS011;3876;42.204;24.686;2023-10-31T08:17:23;2.33;;;2.23;;
7667;SDS011;3876;42.204;24.686;2023-10-31T08:19:51;7.77;;;2.57;;
7667;SDS011;3876;42.204;24.686;2023-10-31T08:22:19;2.63;;;2.43;;
7667;SDS011;3876;42.204;24.686;2023-10-31T08:24:46;1.77;;;1.77;;
7667;SDS011;3876;42.204;24.686;2023-10-31T08:27:13;1.67;;;1.67;;
7667;SDS011;3876;42.204;24.686;2023-10-31T08:29:40;2.20;;;2.10;;
7667;SDS011;3876;42.204;24.686;2023-10-31T08:32:06;1.90;;;1.80;;
7667;SDS011;3876;42.204;24.686;2023-10-31T08:34:33;1.77;;;1.77;;
7667;SDS011;3876;42.204;24.686;2023-10-31T08:37:00;2.20;;;2.10;;
7667;SDS011;3876;42.204;24.686;2023-10-31T08:39:28;2.47;;;2.37;;
7667;SDS011;3876;42.204;24.686;2023-10-31T08:41:56;1.67;;;1.67;;
7667;SDS011;3876;42.204;24.686;2023-10-31T08:44:24;2.00;;;1.90;;
7667;SDS011;3876;42.204;24.686;2023-10-31T08:46:51;5.60;;;1.57;;
7667;SDS011;3876;42.204;24.686;2023-10-31T08:49:18;2.40;;;2.30;;
7667;SDS011;3876;42.204;24.686;2023-10-31T08:51:45;2.60;;;2.07;;
7667;SDS011;3876;42.204;24.686;2023-10-31T08:54:11;2.57;;;2.37;;
7667;SDS011;3876;42.204;24.686;2023-10-31T08:56:39;2.40;;;2.30;;
7667;SDS011;3876;42.204;24.686;2023-10-31T08:59:06;2.03;;;1.90;;
7667;SDS011;3876;42.204;24.686;2023-10-31T09:01:33;2.33;;;2.23;;
7667;SDS011;3876;42.204;24.686;2023-10-31T09:04:00;1.60;;;1.60;;
7667;SDS011;3876;42.204;24.686;2023-10-31T09:06:26;2.57;;;2.47;;
7667;SDS011;3876;42.204;24.686;2023-10-31T09:08:53;1.87;;;1.77;;
7667;SDS011;3876;42.204;24.686;2023-10-31T09:11:20;2.97;;;2.87;;
7667;SDS011;3876;42.204;24.686;2023-10-31T09:13:48;3.93;;;3.20;;
7667;SDS011;3876;42.204;24.686;2023-10-31T09:16:15;2.37;;;2.27;;
7667;SDS011;3876;42.204;24.686;2023-10-31T09:18:41;2.17;;;2.07;;
7667;SDS011;3876;42.204;24.686;2023-10-31T09:21:08;2.60;;;2.50;;
7667;SDS011;3876;42.204;24.686;2023-10-31T09:23:35;2.03;;;1.87;;
7667;SDS011;3876;42.204;24.686;2023-10-31T09:26:02;2.97;;;2.77;;
7667;SDS011;3876;42.204;24.686;2023-10-31T09:28:29;2.20;;;2.10;;
7667;SDS011;3876;42.204;24.686;2023-10-31T09:30:57;2.13;;;2.03;;
7667;SDS011;3876;42.204;24.686;2023-10-31T09:33:25;1.90;;;1.80;;
7667;SDS011;3876;42.204;24.686;2023-10-31T09:35:51;2.60;;;2.40;;
7667;SDS011;3876;42.204;24.686;2023-10-31T09:38:18;2.77;;;2.27;;
7667;SDS011;3876;42.204;24.686;2023-10-31T09:40:45;2.50;;;1.83;;
7667;SDS011;3876;42.204;24.686;2023-10-31T09:43:11;1.43;;;1.43;;
7667;SDS011;3876;42.204;24.686;2023-10-31T09:45:38;1.90;;;1.80;;
7667;SDS011;3876;42.204;24.686;2023-10-31T09:48:08;1.00;;;1.00;;
7667;SDS011;3876;42.204;24.686;2023-10-31T09:50:35;2.40;;;1.80;;
7667;SDS011;3876;42.204;24.686;2023-10-31T09:53:03;1.40;;;1.30;;
7667;SDS011;3876;42.204;24.686;2023-10-31T09:55:32;1.10;;;1.10;;
7667;SDS011;3876;42.204;24.686;2023-10-31T09:58:00;2.23;;;2.07;;
7667;SDS011;3876;42.204;24.686;2023-10-31T10:00:27;1.33;;;1.33;;
7667;SDS011;3876;42.204;24.686;2023-10-31T10:02:54;1.70;;;1.60;;
7667;SDS011;3876;42.204;24.686;2023-10-31T10:05:22;4.57;;;2.10;;
7667;SDS011;3876;42.204;24.686;2023-10-31T10:07:49;2.03;;;1.93;;
7667;SDS011;3876;42.204;24.686;2023-10-31T10:10:16;2.20;;;1.60;;
7667;SDS011;3876;42.204;24.686;2023-10-31T10:12:43;1.70;;;1.60;;
7667;SDS011;3876;42.204;24.686;2023-10-31T10:15:11;4.70;;;2.20;;
7667;SDS011;3876;42.204;24.686;2023-10-31T10:17:38;1.13;;;1.13;;
7667;SDS011;3876;42.204;24.686;2023-10-31T10:20:05;1.37;;;1.33;;
7667;SDS011;3876;42.204;24.686;2023-10-31T10:22:37;2.70;;;1.10;;
7667;SDS011;3876;42.204;24.686;2023-10-31T10:25:05;1.40;;;1.30;;
7667;SDS011;3876;42.204;24.686;2023-10-31T10:27:33;2.50;;;1.40;;
7667;SDS011;3876;42.204;24.686;2023-10-31T10:30:00;1.27;;;1.27;;
7667;SDS011;3876;42.204;24.686;2023-10-31T10:32:27;1.37;;;1.33;;
7667;SDS011;3876;42.204;24.686;2023-10-31T10:34:54;1.57;;;1.50;;
7667;SDS011;3876;42.204;24.686;2023-10-31T10:37:21;1.80;;;1.70;;
7667;SDS011;3876;42.204;24.686;2023-10-31T10:39:50;1.80;;;1.60;;
7667;SDS011;3876;42.204;24.686;2023-10-31T10:42:21;2.13;;;2.03;;
7667;SDS011;3876;42.204;24.686;2023-10-31T10:44:57;2.23;;;1.33;;
7667;SDS011;3876;42.204;24.686;2023-10-31T10:47:24;1.67;;;1.57;;
7667;SDS011;3876;42.204;24.686;2023-10-31T10:49:51;1.70;;;1.60;;
7667;SDS011;3876;42.204;24.686;2023-10-31T10:52:27;1.33;;;1.20;;
7667;SDS011;3876;42.204;24.686;2023-10-31T10:55:01;1.47;;;1.43;;
7667;SDS011;3876;42.204;24.686;2023-10-31T10:57:36;1.30;;;1.20;;
7667;SDS011;3876;42.204;24.686;2023-10-31T11:00:05;1.97;;;1.33;;
7667;SDS011;3876;42.204;24.686;2023-10-31T11:02:38;4.57;;;1.17;;
7667;SDS011;3876;42.204;24.686;2023-10-31T11:05:05;1.30;;;1.30;;
7667;SDS011;3876;42.204;24.686;2023-10-31T11:07:34;1.07;;;1.07;;
7667;SDS011;3876;42.204;24.686;2023-10-31T11:10:02;1.40;;;1.40;;
7667;SDS011;3876;42.204;24.686;2023-10-31T11:12:30;1.70;;;1.30;;
7667;SDS011;3876;42.204;24.686;2023-10-31T11:14:56;1.00;;;1.00;;
7667;SDS011;3876;42.204;24.686;2023-10-31T11:17:26;1.30;;;1.30;;
7667;SDS011;3876;42.204;24.686;2023-10-31T11:19:55;1.00;;;1.00;;
7667;SDS011;3876;42.204;24.686;2023-10-31T11:22:22;4.20;;;1.63;;
7667;SDS011;3876;42.204;24.686;2023-10-31T11:24:49;1.70;;;1.60;;
7667;SDS011;3876;42.204;24.686;2023-10-31T11:27:18;1.03;;;1.03;;
7667;SDS011;3876;42.204;24.686;2023-10-31T11:29:45;1.43;;;1.40;;
7667;SDS011;3876;42.204;24.686;2023-10-31T11:32:13;1.33;;;1.27;;
7667;SDS011;3876;42.204;24.686;2023-10-31T11:34:41;6.40;;;1.50;;
7667;SDS011;3876;42.204;24.686;2023-10-31T11:37:24;1.27;;;1.03;;
7667;SDS011;3876;42.204;24.686;2023-10-31T11:40:15;1.00;;;1.00;;
7667;SDS011;3876;42.204;24.686;2023-10-31T11:42:48;0.97;;;0.97;;
7667;SDS011;3876;42.204;24.686;2023-10-31T11:48:02;1.73;;;1.60;;
7667;SDS011;3876;42.204;24.686;2023-10-31T11:50:30;1.60;;;1.50;;
7667;SDS011;3876;42.204;24.686;2023-10-31T11:52:58;1.40;;;1.23;;
7667;SDS011;3876;42.204;24.686;2023-10-31T11:55:30;1.70;;;0.93;;
7667;SDS011;3876;42.204;24.686;2023-10-31T11:58:00;1.40;;;1.40;;
7667;SDS011;3876;42.204;24.686;2023-10-31T12:00:38;1.40;;;1.40;;
7667;SDS011;3876;42.204;24.686;2023-10-31T12:03:05;1.07;;;1.07;;
7667;SDS011;3876;42.204;24.686;2023-10-31T12:05:31;1.63;;;1.37;;
7667;SDS011;3876;42.204;24.686;2023-10-31T12:07:58;0.90;;;0.90;;
7667;SDS011;3876;42.204;24.686;2023-10-31T12:10:27;1.20;;;1.20;;
7667;SDS011;3876;42.204;24.686;2023-10-31T12:12:56;1.97;;;1.33;;
7667;SDS011;3876;42.204;24.686;2023-10-31T12:15:24;1.80;;;1.50;;
7667;SDS011;3876;42.204;24.686;2023-10-31T12:17:51;1.43;;;1.33;;
7667;SDS011;3876;42.204;24.686;2023-10-31T12:20:18;5.03;;;1.40;;
7667;SDS011;3876;42.204;24.686;2023-10-31T12:22:45;1.70;;;1.60;;
7667;SDS011;3876;42.204;24.686;2023-10-31T12:25:11;1.70;;;1.60;;
7667;SDS011;3876;42.204;24.686;2023-10-31T12:27:41;1.30;;;1.30;;
7667;SDS011;3876;42.204;24.686;2023-10-31T12:30:09;1.37;;;1.27;;
7667;SDS011;3876;42.204;24.686;2023-10-31T12:32:38;1.03;;;1.03;;
7667;SDS011;3876;42.204;24.686;2023-10-31T12:35:07;0.90;;;0.90;;
7667;SDS011;3876;42.204;24.686;2023-10-31T12:37:40;1.10;;;1.03;;
7667;SDS011;3876;42.204;24.686;2023-10-31T12:40:10;1.40;;;1.40;;
7667;SDS011;3876;42.204;24.686;2023-10-31T12:42:37;1.60;;;1.50;;
7667;SDS011;3876;42.204;24.686;2023-10-31T12:45:05;1.80;;;1.70;;
7667;SDS011;3876;42.204;24.686;2023-10-31T12:47:33;1.23;;;1.23;;
7667;SDS011;3876;42.204;24.686;2023-10-31T12:50:08;1.27;;;1.27;;
7667;SDS011;3876;42.204;24.686;2023-10-31T12:52:45;2.53;;;2.00;;
7667;SDS011;3876;42.204;24.686;2023-10-31T12:55:13;2.37;;;2.17;;
7667;SDS011;3876;42.204;24.686;2023-10-31T12:57:40;2.10;;;1.83;;
7667;SDS011;3876;42.204;24.686;2023-10-31T13:00:07;3.70;;;2.00;;
7667;SDS011;3876;42.204;24.686;2023-10-31T13:02:37;2.00;;;1.90;;
7667;SDS011;3876;42.204;24.686;2023-10-31T13:05:09;2.47;;;2.30;;
7667;SDS011;3876;42.204;24.686;2023-10-31T13:07:38;3.07;;;2.77;;
7667;SDS011;3876;42.204;24.686;2023-10-31T13:10:05;7.83;;;3.67;;
7667;SDS011;3876;42.204;24.686;2023-10-31T13:12:34;4.03;;;3.43;;
7667;SDS011;3876;42.204;24.686;2023-10-31T13:15:01;5.47;;;4.30;;
7667;SDS011;3876;42.204;24.686;2023-10-31T13:17:28;6.53;;;5.30;;
7667;SDS011;3876;42.204;24.686;2023-10-31T13:19:56;5.43;;;4.87;;
7667;SDS011;3876;42.204;24.686;2023-10-31T13:22:24;13.37;;;5.37;;
7667;SDS011;3876;42.204;24.686;2023-10-31T13:24:51;8.03;;;5.00;;
7667;SDS011;3876;42.204;24.686;2023-10-31T13:27:17;4.03;;;3.60;;
7667;SDS011;3876;42.204;24.686;2023-10-31T13:29:44;10.17;;;4.50;;
7667;SDS011;3876;42.204;24.686;2023-10-31T13:32:14;8.20;;;5.67;;
7667;SDS011;3876;42.204;24.686;2023-10-31T13:34:41;6.60;;;6.07;;
7667;SDS011;3876;42.204;24.686;2023-10-31T13:37:08;6.20;;;5.63;;
7667;SDS011;3876;42.204;24.686;2023-10-31T13:39:36;6.00;;;5.53;;
7667;SDS011;3876;42.204;24.686;2023-10-31T13:42:03;7.53;;;6.47;;
7667;SDS011;3876;42.204;24.686;2023-10-31T13:44:30;9.60;;;7.33;;
7667;SDS011;3876;42.204;24.686;2023-10-31T13:46:57;10.07;;;7.17;;
7667;SDS011;3876;42.204;24.686;2023-10-31T13:49:24;9.53;;;6.50;;
7667;SDS011;3876;42.204;24.686;2023-10-31T13:51:51;8.83;;;7.30;;
7667;SDS011;3876;42.204;24.686;2023-10-31T13:54:17;10.87;;;8.23;;
7667;SDS011;3876;42.204;24.686;2023-10-31T13:56:46;13.10;;;7.50;;
7667;SDS011;3876;42.204;24.686;2023-10-31T13:59:12;9.73;;;6.40;;
7667;SDS011;3876;42.204;24.686;2023-10-31T14:01:39;8.43;;;7.10;;
7667;SDS011;3876;42.204;24.686;2023-10-31T14:04:06;14.53;;;6.87;;
7667;SDS011;3876;42.204;24.686;2023-10-31T14:06:33;7.53;;;6.87;;
7667;SDS011;3876;42.204;24.686;2023-10-31T14:09:01;7.80;;;6.17;;
7667;SDS011;3876;42.204;24.686;2023-10-31T14:11:30;10.53;;;5.97;;
7667;SDS011;3876;42.204;24.686;2023-10-31T14:13:58;11.23;;;5.87;;
7667;SDS011;3876;42.204;24.686;2023-10-31T14:16:28;11.47;;;6.53;;
7667;SDS011;3876;42.204;24.686;2023-10-31T14:18:55;6.87;;;5.83;;
7667;SDS011;3876;42.204;24.686;2023-10-31T14:21:21;16.03;;;6.60;;
7667;SDS011;3876;42.204;24.686;2023-10-31T14:23:48;6.27;;;5.53;;
7667;SDS011;3876;42.204;24.686;2023-10-31T14:26:18;6.10;;;5.57;;
7667;SDS011;3876;42.204;24.686;2023-10-31T14:28:45;11.90;;;6.57;;
7667;SDS011;3876;42.204;24.686;2023-10-31T14:31:14;7.50;;;5.57;;
7667;SDS011;3876;42.204;24.686;2023-10-31T14:33:41;11.10;;;4.97;;
7667;SDS011;3876;42.204;24.686;2023-10-31T14:36:11;8.63;;;4.97;;
7667;SDS011;3876;42.204;24.686;2023-10-31T14:38:38;5.73;;;4.70;;
7667;SDS011;3876;42.204;24.686;2023-10-31T14:41:05;4.60;;;4.20;;
7667;SDS011;3876;42.204;24.686;2023-10-31T14:43:33;10.93;;;4.23;;
7667;SDS011;3876;42.204;24.686;2023-10-31T14:46:00;4.33;;;3.87;;
7667;SDS011;3876;42.204;24.686;2023-10-31T14:48:29;9.50;;;4.40;;
7667;SDS011;3876;42.204;24.686;2023-10-31T14:50:55;6.47;;;4.57;;
7667;SDS011;3876;42.204;24.686;2023-10-31T14:53:23;3.90;;;3.70;;
7667;SDS011;3876;42.204;24.686;2023-10-31T14:55:49;9.20;;;4.57;;
7667;SDS011;3876;42.204;24.686;2023-10-31T14:58:16;10.80;;;4.43;;
7667;SDS011;3876;42.204;24.686;2023-10-31T15:00:44;6.00;;;4.03;;
7667;SDS011;3876;42.204;24.686;2023-10-31T15:03:12;5.30;;;4.03;;
7667;SDS011;3876;42.204;24.686;2023-10-31T15:05:40;6.40;;;4.37;;